createdAt,value
2023-04-10T00:01:12.549Z,93.65
2023-04-10T00:03:41.469Z,93.59
2023-04-10T00:06:09.654Z,93.60
2023-04-10T00:08:39.118Z,93.54
2023-04-10T00:11:07.433Z,93.97
2023-04-10T00:13:35.666Z,94.01
2023-04-10T00:16:04.279Z,93.89
2023-04-10T00:18:32.270Z,93.64
2023-04-10T00:21:00.313Z,93.68
2023-04-10T00:23:28.316Z,93.88
2023-04-10T00:25:57.714Z,94.11
2023-04-10T00:28:25.794Z,94.20
2023-04-10T00:30:54.154Z,94.35
2023-04-10T00:33:22.223Z,94.37
2023-04-10T00:35:50.530Z,94.20
2023-04-10T00:38:18.562Z,94.30
2023-04-10T00:40:46.630Z,94.30
2023-04-10T00:43:16.055Z,94.55
2023-04-10T00:45:44.338Z,94.88
2023-04-10T00:48:12.488Z,95.00
2023-04-10T00:50:40.547Z,95.14
2023-04-10T00:53:08.592Z,95.15
2023-04-10T00:55:36.999Z,95.25
2023-04-10T00:58:05.003Z,95.31
2023-04-10T01:00:34.469Z,95.32
2023-04-10T01:03:02.657Z,95.42
2023-04-10T01:05:40.715Z,95.33
2023-04-10T01:08:13.732Z,95.39
2023-04-10T01:10:48.077Z,95.37
2023-04-10T01:13:22.137Z,95.43
2023-04-10T01:15:58.859Z,95.39
2023-04-10T01:18:33.277Z,95.44
2023-04-10T01:21:03.858Z,95.47
2023-04-10T01:23:56.370Z,95.58
2023-04-10T01:26:37.995Z,95.46
2023-04-10T01:29:09.769Z,95.52
2023-04-10T01:31:40.427Z,95.48
2023-04-10T01:34:11.363Z,95.40
2023-04-10T01:36:44.257Z,95.38
2023-04-10T01:39:12.382Z,95.37
2023-04-10T01:41:42.545Z,95.36
2023-04-10T01:44:15.145Z,95.45
2023-04-10T01:46:45.481Z,95.48
2023-04-10T01:49:13.957Z,95.59
2023-04-10T01:51:42.372Z,95.77
2023-04-10T01:54:10.578Z,95.87
2023-04-10T01:56:38.812Z,95.83
2023-04-10T01:59:06.903Z,95.93
2023-04-10T02:01:36.288Z,95.92
2023-04-10T02:04:04.791Z,95.94
2023-04-10T02:06:40.341Z,95.89
2023-04-10T02:09:14.703Z,95.80
2023-04-10T02:11:48.772Z,95.86
2023-04-10T02:14:19.105Z,96.12
2023-04-10T02:16:50.124Z,96.11
2023-04-10T02:19:19.434Z,96.08
2023-04-10T02:21:48.196Z,95.99
2023-04-10T02:24:16.347Z,96.02
2023-04-10T02:26:47.923Z,95.96
2023-04-10T02:29:16.174Z,95.95
2023-04-10T02:31:45.177Z,95.96
2023-04-10T02:34:14.675Z,96.00
2023-04-10T02:36:42.747Z,96.00
2023-04-10T02:39:11.123Z,96.16
2023-04-10T02:41:39.239Z,96.16
2023-04-10T02:44:07.309Z,96.26
2023-04-10T02:46:35.429Z,96.33
2023-04-10T02:49:03.463Z,96.37
2023-04-10T02:51:36.214Z,96.41
2023-04-10T02:54:04.456Z,96.41
2023-04-10T02:56:34.642Z,96.35
2023-04-10T02:59:02.723Z,96.29
2023-04-10T03:01:30.927Z,96.20
2023-04-10T03:03:59.358Z,96.20
2023-04-10T03:06:28.145Z,96.10
2023-04-10T03:08:57.757Z,96.15
2023-04-10T03:11:26.012Z,96.12
2023-04-10T03:13:54.369Z,96.17
2023-04-10T03:16:22.758Z,96.16
2023-04-10T03:18:50.983Z,96.20
2023-04-10T03:21:19.055Z,96.28
2023-04-10T03:23:47.449Z,96.40
2023-04-10T03:26:16.966Z,96.55
2023-04-10T03:28:44.993Z,96.55
2023-04-10T03:31:13.367Z,96.56
2023-04-10T03:33:41.502Z,96.58
2023-04-10T03:36:10.345Z,96.61
2023-04-10T03:38:38.400Z,96.55
2023-04-10T03:41:07.113Z,96.63
2023-04-10T03:43:36.556Z,96.55
2023-04-10T03:46:04.618Z,96.40
2023-04-10T03:48:33.548Z,96.45
2023-04-10T03:51:01.530Z,96.34
2023-04-10T03:53:29.705Z,96.32
2023-04-10T03:55:57.736Z,96.33
2023-04-10T03:58:25.876Z,96.25
2023-04-10T04:00:55.521Z,96.17
2023-04-10T04:03:23.695Z,96.15
2023-04-10T04:05:52.216Z,96.19
2023-04-10T04:08:20.308Z,96.16
2023-04-10T04:10:48.363Z,96.17
2023-04-10T04:13:16.417Z,96.12
2023-04-10T04:15:44.557Z,96.14
2023-04-10T04:18:13.879Z,96.14
2023-04-10T04:20:41.907Z,96.33
2023-04-10T04:23:09.932Z,96.45
2023-04-10T04:25:37.979Z,96.44
2023-04-10T04:28:06.393Z,96.47
2023-04-10T04:30:34.504Z,96.62
2023-04-10T04:33:02.788Z,96.66
2023-04-10T04:35:32.197Z,96.65
2023-04-10T04:38:00.413Z,96.70
2023-04-10T04:40:28.434Z,96.70
2023-04-10T04:42:56.500Z,96.72
2023-04-10T04:45:24.850Z,96.76
2023-04-10T04:47:52.920Z,96.89
2023-04-10T04:50:20.953Z,97.03
2023-04-10T04:52:50.569Z,97.09
2023-04-10T04:55:18.795Z,97.12
2023-04-10T04:57:46.811Z,97.17
2023-04-10T05:00:15.406Z,97.25
2023-04-10T05:02:43.523Z,97.31
2023-04-10T05:05:11.684Z,97.32
2023-04-10T05:07:39.724Z,97.46
2023-04-10T05:10:10.041Z,97.59
2023-04-10T05:12:38.110Z,97.62
2023-04-10T05:15:07.529Z,97.53
2023-04-10T05:17:35.648Z,97.50
2023-04-10T05:20:04.275Z,97.52
2023-04-10T05:22:32.511Z,97.38
2023-04-10T05:25:00.701Z,97.36
2023-04-10T05:27:30.211Z,97.30
2023-04-10T05:29:58.335Z,97.28
2023-04-10T05:32:26.471Z,96.82
2023-04-10T05:34:54.504Z,96.71
2023-04-10T05:37:22.667Z,96.57
2023-04-10T05:39:50.725Z,96.23
2023-04-10T05:42:18.798Z,95.96
2023-04-10T05:44:48.210Z,95.71
2023-04-10T05:47:16.254Z,95.42
2023-04-10T05:49:44.323Z,95.42
2023-04-10T05:52:12.401Z,95.06
2023-04-10T05:54:40.734Z,94.65
2023-04-10T05:57:08.749Z,94.59
2023-04-10T05:59:36.821Z,94.28
2023-04-10T06:02:06.213Z,94.09
2023-04-10T06:04:34.452Z,93.95
2023-04-10T06:07:02.561Z,93.89
2023-04-10T06:09:30.720Z,93.89
2023-04-10T06:11:58.784Z,93.89
2023-04-10T06:14:27.267Z,93.87
2023-04-10T06:16:55.518Z,93.84
2023-04-10T06:19:24.980Z,93.82
2023-04-10T06:21:54.515Z,93.92
2023-04-10T06:24:22.977Z,93.78
2023-04-10T06:26:50.998Z,93.71
2023-04-10T06:29:19.081Z,93.67
2023-04-10T06:31:47.105Z,93.83
2023-04-10T06:34:15.290Z,93.71
2023-04-10T06:36:44.869Z,93.75
2023-04-10T06:39:12.864Z,93.94
2023-04-10T06:41:40.850Z,93.82
2023-04-10T06:44:08.919Z,93.72
2023-04-10T06:46:36.977Z,93.59
2023-04-10T06:49:05.076Z,93.46
2023-04-10T06:51:33.073Z,93.33
2023-04-10T06:54:02.507Z,93.03
2023-04-10T06:56:30.546Z,92.83
2023-04-10T06:58:58.703Z,92.70
2023-04-10T07:01:26.824Z,91.77
2023-04-10T07:03:56.033Z,90.50
2023-04-10T07:06:24.128Z,88.63
2023-04-10T07:08:52.438Z,87.92
2023-04-10T07:11:22.136Z,86.23
2023-04-10T07:13:53.950Z,83.98
2023-04-10T07:16:22.048Z,81.14
2023-04-10T07:18:50.101Z,78.88
2023-04-10T07:21:18.104Z,77.60
2023-04-10T07:23:46.232Z,76.54
2023-04-10T07:26:14.642Z,75.37
2023-04-10T07:28:44.404Z,75.45
2023-04-10T07:31:13.829Z,74.81
2023-04-10T07:33:43.017Z,73.68
2023-04-10T07:36:11.333Z,76.01
2023-04-10T07:38:39.637Z,75.44
2023-04-10T07:41:07.950Z,76.97
2023-04-10T07:43:36.426Z,73.49
2023-04-10T07:46:06.163Z,72.35
2023-04-10T07:48:34.244Z,71.55
2023-04-10T07:51:03.088Z,70.53
2023-04-10T07:53:31.382Z,68.75
2023-04-10T07:55:59.453Z,67.44
2023-04-10T07:58:27.600Z,67.00
2023-04-10T08:00:56.152Z,65.98
2023-04-10T08:03:25.812Z,64.89
2023-04-10T08:05:53.966Z,63.30
2023-04-10T08:08:22.000Z,62.99
2023-04-10T08:10:50.522Z,63.76
2023-04-10T08:13:18.532Z,61.07
2023-04-10T08:15:46.858Z,62.28
2023-04-10T08:18:14.944Z,60.37
2023-04-10T08:20:44.386Z,60.72
2023-04-10T08:23:19.652Z,61.76
2023-04-10T08:25:48.284Z,62.11
2023-04-10T08:28:16.323Z,62.00
2023-04-10T08:30:44.805Z,60.69
2023-04-10T08:33:12.921Z,58.27
2023-04-10T08:35:41.024Z,60.00
2023-04-10T08:38:14.097Z,60.39
2023-04-10T08:40:44.445Z,61.16
2023-04-10T08:43:12.635Z,61.90
2023-04-10T08:45:41.625Z,58.76
2023-04-10T08:48:12.258Z,60.16
2023-04-10T08:50:44.396Z,57.69
2023-04-10T08:53:14.901Z,58.17
2023-04-10T08:55:43.433Z,58.60
2023-04-10T08:58:13.706Z,58.05
2023-04-10T09:00:41.831Z,58.48
2023-04-10T09:03:11.881Z,57.62
2023-04-10T09:05:40.128Z,57.75
2023-04-10T09:08:08.808Z,56.65
2023-04-10T09:10:38.420Z,57.35
2023-04-10T09:13:06.498Z,55.94
2023-04-10T09:15:56.832Z,55.44
2023-04-10T09:18:42.743Z,57.30
2023-04-10T09:21:11.786Z,55.82
2023-04-10T09:23:40.206Z,54.10
2023-04-10T09:29:03.518Z,54.02
2023-04-10T09:31:33.478Z,54.96
2023-04-10T09:34:13.109Z,54.43
2023-04-10T09:36:42.605Z,53.99
2023-04-10T09:39:12.765Z,53.41
2023-04-10T09:41:49.444Z,52.71
2023-04-10T09:44:20.742Z,52.22
2023-04-10T09:46:49.717Z,50.63
2023-04-10T09:49:18.239Z,51.63
2023-04-10T09:51:47.566Z,49.79
2023-04-10T09:54:16.894Z,50.39
2023-04-10T09:56:46.681Z,51.54
2023-04-10T09:59:14.997Z,47.21
2023-04-10T10:01:45.647Z,46.14
2023-04-10T10:04:17.391Z,45.99
2023-04-10T10:06:46.095Z,46.00
2023-04-10T10:09:14.263Z,42.38
2023-04-10T10:11:42.289Z,44.98
2023-04-10T10:14:15.014Z,45.30
2023-04-10T10:16:47.811Z,46.35
2023-04-10T10:19:21.174Z,45.77
2023-04-10T10:21:49.552Z,45.00
2023-04-10T10:24:18.869Z,44.01
2023-04-10T10:26:48.640Z,43.97
2023-04-10T10:29:18.694Z,43.38
2023-04-10T10:31:49.545Z,42.85
2023-04-10T10:34:17.944Z,41.21
2023-04-10T10:36:46.051Z,42.47
2023-04-10T10:39:24.757Z,42.68
2023-04-10T10:42:00.055Z,43.23
2023-04-10T10:44:34.858Z,42.59
2023-04-10T10:47:09.678Z,43.18
2023-04-10T10:49:53.630Z,42.96
2023-04-10T10:52:47.946Z,43.11
2023-04-10T10:55:37.987Z,43.64
2023-04-10T10:58:07.768Z,44.56
2023-04-10T11:01:10.738Z,44.72
2023-04-10T11:03:41.081Z,45.21
2023-04-10T11:06:09.661Z,46.77
2023-04-10T11:08:44.617Z,46.30
2023-04-10T11:11:17.849Z,46.12
2023-04-10T11:14:19.576Z,45.99
2023-04-10T11:16:48.672Z,46.34
2023-04-10T11:19:22.628Z,46.47
2023-04-10T11:22:07.457Z,47.44
2023-04-10T11:25:00.315Z,47.41
2023-04-10T11:27:48.707Z,48.61
2023-04-10T11:30:30.640Z,47.75
2023-04-10T11:33:00.584Z,49.67
2023-04-10T11:35:36.657Z,50.47
2023-04-10T11:38:12.529Z,49.47
2023-04-10T11:41:05.331Z,48.03
2023-04-10T11:43:35.285Z,48.71
2023-04-10T11:46:06.230Z,48.42
2023-04-10T11:48:37.086Z,49.19
2023-04-10T11:51:14.688Z,49.87
2023-04-10T11:53:43.177Z,53.43
2023-04-10T11:56:18.654Z,50.68
2023-04-10T11:58:51.123Z,51.19
2023-04-10T12:01:23.071Z,48.05
2023-04-10T12:03:52.485Z,51.72
2023-04-10T12:06:24.603Z,49.21
2023-04-10T12:08:54.677Z,53.50
2023-04-10T12:11:25.230Z,51.90
2023-04-10T12:13:54.374Z,52.67
2023-04-10T12:16:22.876Z,49.04
2023-04-10T12:18:52.726Z,52.43
2023-04-10T12:21:22.917Z,50.91
2023-04-10T12:23:52.480Z,50.37
2023-04-10T12:26:21.698Z,48.89
2023-04-10T12:28:54.668Z,48.32
2023-04-10T12:31:29.754Z,49.86
2023-04-10T12:33:58.617Z,52.56
2023-04-10T12:36:35.362Z,49.77
2023-04-10T12:39:05.312Z,51.44
2023-04-10T12:41:35.479Z,51.56
2023-04-10T12:44:11.348Z,50.44
2023-04-10T12:46:40.252Z,50.14
2023-04-10T12:49:12.977Z,50.98
2023-04-10T12:51:58.955Z,51.75
2023-04-10T12:54:29.608Z,51.22
2023-04-10T12:56:59.329Z,50.74
2023-04-10T12:59:27.908Z,51.26
2023-04-10T13:01:56.633Z,51.86
2023-04-10T13:04:24.906Z,51.68
2023-04-10T13:06:54.719Z,52.12
2023-04-10T13:09:26.317Z,51.88
2023-04-10T13:11:55.380Z,51.39
2023-04-10T13:14:26.244Z,51.49
2023-04-10T13:16:54.812Z,50.26
2023-04-10T13:19:23.294Z,50.65
2023-04-10T13:21:52.074Z,51.34
2023-04-10T13:24:24.101Z,50.55
2023-04-10T13:26:55.054Z,50.90
2023-04-10T13:29:23.375Z,50.97
2023-04-10T13:31:51.512Z,51.76
2023-04-10T13:34:19.608Z,51.98
2023-04-10T13:36:50.813Z,53.28
2023-04-10T13:39:19.559Z,51.21
2023-04-10T13:41:49.165Z,51.08
2023-04-10T13:44:17.216Z,51.59
2023-04-10T13:46:46.628Z,51.65
2023-04-10T13:49:17.091Z,51.35
2023-04-10T13:51:45.800Z,51.53
2023-04-10T13:54:14.092Z,51.51
2023-04-10T13:56:42.263Z,51.07
2023-04-10T13:59:11.887Z,51.27
2023-04-10T14:01:40.210Z,52.21
2023-04-10T14:04:09.108Z,52.40
2023-04-10T14:06:37.918Z,52.81
2023-04-10T14:09:07.292Z,52.91
2023-04-10T14:11:37.405Z,52.49
2023-04-10T14:14:05.976Z,52.66
2023-04-10T14:16:38.119Z,52.05
2023-04-10T14:19:06.910Z,51.49
2023-04-10T14:21:35.305Z,52.30
2023-04-10T14:24:03.684Z,53.06
2023-04-10T14:26:32.436Z,53.30
2023-04-10T14:29:01.079Z,53.13
2023-04-10T14:31:31.960Z,53.53
2023-04-10T14:34:01.872Z,53.32
2023-04-10T14:36:29.921Z,53.53
2023-04-10T14:38:58.318Z,52.60
2023-04-10T14:41:27.083Z,53.02
2023-04-10T14:43:55.341Z,52.63
2023-04-10T14:46:25.652Z,52.61
2023-04-10T14:48:53.784Z,52.85
2023-04-10T14:51:26.373Z,52.27
2023-04-10T14:53:57.535Z,52.43
2023-04-10T14:56:28.692Z,51.90
2023-04-10T14:59:05.069Z,52.17
2023-04-10T15:01:38.430Z,51.80
2023-04-10T15:04:07.105Z,52.02
2023-04-10T15:06:36.846Z,52.00
2023-04-10T15:09:05.072Z,51.76
2023-04-10T15:11:34.282Z,50.25
2023-04-10T15:14:03.214Z,50.48
2023-04-10T15:16:32.165Z,49.96
2023-04-10T15:19:00.542Z,50.22
2023-04-10T15:21:28.633Z,50.60
2023-04-10T15:23:58.670Z,50.26
2023-04-10T15:26:26.992Z,49.17
2023-04-10T15:28:56.178Z,48.60
2023-04-10T15:31:24.903Z,49.09
2023-04-10T15:33:53.863Z,49.21
2023-04-10T15:36:23.820Z,48.86
2023-04-10T15:38:53.726Z,48.95
2023-04-10T15:41:24.189Z,48.85
2023-04-10T15:43:58.451Z,47.99
2023-04-10T15:46:27.725Z,47.83
2023-04-10T15:48:58.283Z,47.94
2023-04-10T15:51:27.400Z,47.50
2023-04-10T15:53:56.762Z,47.98
2023-04-10T15:56:28.667Z,47.81
2023-04-10T15:58:56.611Z,47.55
2023-04-10T16:01:25.304Z,47.53
2023-04-10T16:03:53.773Z,47.90
2023-04-10T16:06:26.030Z,47.82
2023-04-10T16:08:54.083Z,48.39
2023-04-10T16:11:22.051Z,48.46
2023-04-10T16:13:51.685Z,48.65
2023-04-10T16:16:20.819Z,48.58
2023-04-10T16:18:48.918Z,48.94
2023-04-10T16:21:17.190Z,48.83
2023-04-10T16:23:45.314Z,48.71
2023-04-10T16:26:13.553Z,48.75
2023-04-10T16:28:41.766Z,48.38
2023-04-10T16:31:11.979Z,48.02
2023-04-10T16:33:42.558Z,48.37
2023-04-10T16:36:12.398Z,48.64
2023-04-10T16:38:40.893Z,48.58
2023-04-10T16:41:12.697Z,48.86
2023-04-10T16:43:40.787Z,48.61
2023-04-10T16:46:11.548Z,48.99
2023-04-10T16:48:41.101Z,49.11
2023-04-10T16:51:17.516Z,48.85
2023-04-10T16:53:46.233Z,49.21
2023-04-10T16:56:14.270Z,49.11
2023-04-10T16:58:43.765Z,49.52
2023-04-10T17:01:18.299Z,49.61
2023-04-10T17:03:49.137Z,49.82
2023-04-10T17:06:18.195Z,49.54
2023-04-10T17:08:46.578Z,49.83
2023-04-10T17:11:14.963Z,49.94
2023-04-10T17:13:43.797Z,50.49
2023-04-10T17:16:12.090Z,50.04
2023-04-10T17:18:40.131Z,50.58
2023-04-10T17:21:13.250Z,50.33
2023-04-10T17:23:42.350Z,50.66
2023-04-10T17:26:14.380Z,50.13
2023-04-10T17:28:44.856Z,50.67
2023-04-10T17:31:13.661Z,50.31
2023-04-10T17:33:43.022Z,53.50
2023-04-10T17:36:13.728Z,52.64
2023-04-10T17:38:44.165Z,54.15
2023-04-10T17:41:15.573Z,50.42
2023-04-10T17:43:44.168Z,50.59
2023-04-10T17:46:16.638Z,51.00
2023-04-10T17:48:45.204Z,51.80
2023-04-10T17:51:14.590Z,52.13
2023-04-10T17:53:42.691Z,52.63
2023-04-10T17:56:18.253Z,53.40
2023-04-10T17:58:46.586Z,54.02
2023-04-10T18:01:22.225Z,54.63
2023-04-10T18:03:50.406Z,55.20
2023-04-10T18:06:20.753Z,55.71
2023-04-10T18:08:49.016Z,56.06
2023-04-10T18:11:19.193Z,56.44
2023-04-10T18:13:47.860Z,56.66
2023-04-10T18:16:16.312Z,57.43
2023-04-10T18:18:44.437Z,57.43
2023-04-10T18:21:13.840Z,57.46
2023-04-10T18:23:45.043Z,57.70
2023-04-10T18:26:14.472Z,57.92
2023-04-10T18:28:46.497Z,57.39
2023-04-10T18:31:16.826Z,57.36
2023-04-10T18:33:45.666Z,56.92
2023-04-10T18:36:18.397Z,57.22
2023-04-10T18:38:48.428Z,57.12
2023-04-10T18:41:16.514Z,57.69
2023-04-10T18:43:51.268Z,57.50
2023-04-10T18:46:30.132Z,57.81
2023-04-10T18:48:58.274Z,57.86
2023-04-10T18:51:28.932Z,57.54
2023-04-10T18:53:58.842Z,57.29
2023-04-10T18:56:27.079Z,56.06
2023-04-10T18:58:55.490Z,56.26
2023-04-10T19:01:24.556Z,56.14
2023-04-10T19:03:54.955Z,55.63
2023-04-10T19:06:24.306Z,55.53
2023-04-10T19:08:52.556Z,55.23
2023-04-10T19:11:22.887Z,55.00
2023-04-10T19:13:51.056Z,55.06
2023-04-10T19:16:20.514Z,55.33
2023-04-10T19:18:49.011Z,54.83
2023-04-10T19:21:17.315Z,54.41
2023-04-10T19:23:46.726Z,54.38
2023-04-10T19:26:14.813Z,54.01
2023-04-10T19:28:44.172Z,53.98
2023-04-10T19:31:12.551Z,53.59
2023-04-10T19:33:42.842Z,53.60
2023-04-10T19:36:11.706Z,53.18
2023-04-10T19:38:41.060Z,53.00
2023-04-10T19:41:16.872Z,53.09
2023-04-10T19:43:46.325Z,53.11
2023-04-10T19:46:17.992Z,53.01
2023-04-10T19:48:46.593Z,52.77
2023-04-10T19:51:14.711Z,52.75
2023-04-10T19:53:43.581Z,52.84
2023-04-10T19:56:11.605Z,52.77
2023-04-10T19:58:41.630Z,52.55
2023-04-10T20:01:12.459Z,52.40
2023-04-10T20:03:41.323Z,52.36
2023-04-10T20:06:10.513Z,52.27
2023-04-10T20:08:38.736Z,52.52
2023-04-10T20:11:08.335Z,52.32
2023-04-10T20:13:36.487Z,52.16
2023-04-10T20:16:04.638Z,52.05
2023-04-10T20:18:36.689Z,52.48
2023-04-10T20:21:07.593Z,52.25
2023-04-10T20:23:35.996Z,52.34
2023-04-10T20:26:05.425Z,52.19
2023-04-10T20:28:36.699Z,52.23
2023-04-10T20:31:04.880Z,52.05
2023-04-10T20:33:34.125Z,52.34
2023-04-10T20:36:03.764Z,52.14
2023-04-10T20:38:32.070Z,52.35
2023-04-10T20:41:00.108Z,52.53
2023-04-10T20:43:28.126Z,52.77
2023-04-10T20:45:56.565Z,52.71
2023-04-10T20:48:24.668Z,52.65
2023-04-10T20:50:52.668Z,52.73
2023-04-10T20:53:22.198Z,53.06
2023-04-10T20:55:52.397Z,53.06
2023-04-10T20:58:20.682Z,53.19
2023-04-10T21:00:48.769Z,53.09
2023-04-10T21:03:17.055Z,53.41
2023-04-10T21:05:45.566Z,53.16
2023-04-10T21:08:14.813Z,53.60
2023-04-10T21:10:44.994Z,53.55
2023-04-10T21:13:14.217Z,54.01
2023-04-10T21:15:43.014Z,53.87
2023-04-10T21:18:11.113Z,53.98
2023-04-10T21:20:40.582Z,54.10
2023-04-10T21:23:08.890Z,54.18
2023-04-10T21:25:37.481Z,54.04
2023-04-10T21:28:06.828Z,54.15
2023-04-10T21:30:35.032Z,54.41
2023-04-10T21:33:03.364Z,54.70
2023-04-10T21:35:31.388Z,54.70
2023-04-10T21:38:01.995Z,54.69
2023-04-10T21:40:34.596Z,54.81
2023-04-10T21:43:03.811Z,54.78
2023-04-10T21:45:34.583Z,54.68
2023-04-10T21:48:03.021Z,54.65
2023-04-10T21:50:31.242Z,54.71
2023-04-10T21:53:00.319Z,54.52
2023-04-10T21:55:29.401Z,54.50
2023-04-10T21:57:59.543Z,54.50
2023-04-10T22:00:28.838Z,54.62
2023-04-10T22:02:58.667Z,54.87
2023-04-10T22:05:27.626Z,54.72
2023-04-10T22:07:56.905Z,54.64
2023-04-10T22:10:27.374Z,54.47
2023-04-10T22:12:55.584Z,54.45
2023-04-10T22:15:23.864Z,54.29
2023-04-10T22:17:52.961Z,54.08
2023-04-10T22:20:22.527Z,53.87
2023-04-10T22:22:50.939Z,53.86
2023-04-10T22:25:19.295Z,53.79
2023-04-10T22:27:48.412Z,53.96
2023-04-10T22:30:17.601Z,53.93
2023-04-10T22:32:45.616Z,53.83
2023-04-10T22:35:13.758Z,54.00
2023-04-10T22:37:44.467Z,54.16
2023-04-10T22:40:12.900Z,54.32
2023-04-10T22:42:41.128Z,54.46
2023-04-10T22:45:11.359Z,54.75
2023-04-10T22:47:40.350Z,54.70
2023-04-10T22:50:10.838Z,54.86
2023-04-10T22:52:39.551Z,55.03
2023-04-10T22:55:10.336Z,55.28
2023-04-10T22:57:38.356Z,55.23
2023-04-10T23:00:09.996Z,55.21
2023-04-10T23:02:38.116Z,55.40
2023-04-10T23:05:08.460Z,55.37
2023-04-10T23:07:37.097Z,55.59
2023-04-10T23:10:06.032Z,55.52
2023-04-10T23:12:35.453Z,55.53
2023-04-10T23:15:05.111Z,55.51
2023-04-10T23:17:33.170Z,55.58
2023-04-10T23:20:01.671Z,55.55
2023-04-10T23:22:32.309Z,55.65
2023-04-10T23:25:00.607Z,55.69
2023-04-10T23:27:29.064Z,55.96
2023-04-10T23:29:58.369Z,55.88
2023-04-10T23:32:26.710Z,56.01
2023-04-10T23:34:54.890Z,56.10
2023-04-10T23:37:23.081Z,56.09
2023-04-10T23:39:51.428Z,56.10
2023-04-10T23:42:20.123Z,56.27
2023-04-10T23:44:48.200Z,56.38
2023-04-10T23:47:17.632Z,56.44
2023-04-10T23:49:45.771Z,56.35
2023-04-10T23:52:15.821Z,56.33
2023-04-10T23:54:44.594Z,56.40
2023-04-10T23:57:14.715Z,56.64
2023-04-10T23:59:42.793Z,56.55
